sensor_id;sensor_type;location;lat;lon;timestamp;P1;durP1;ratioP1;P2;durP2;ratioP2
14118;SDS011;7138;49.246;9.100;2023-07-28T00:02:10;6.60;;;2.70;;
14118;SDS011;7138;49.246;9.100;2023-07-28T00:04:36;5.25;;;2.67;;
14118;SDS011;7138;49.246;9.100;2023-07-28T00:07:02;6.35;;;3.08;;
14118;SDS011;7138;49.246;9.100;2023-07-28T00:09:30;8.63;;;3.08;;
14118;SDS011;7138;49.246;9.100;2023-07-28T00:11:56;5.53;;;2.80;;
14118;SDS011;7138;49.246;9.100;2023-07-28T00:14:23;4.75;;;2.70;;
14118;SDS011;7138;49.246;9.100;2023-07-28T00:16:50;5.05;;;2.92;;
14118;SDS011;7138;49.246;9.100;2023-07-28T00:19:15;5.20;;;2.70;;
14118;SDS011;7138;49.246;9.100;2023-07-28T00:21:41;5.38;;;2.80;;
14118;SDS011;7138;49.246;9.100;2023-07-28T00:24:07;5.47;;;2.63;;
14118;SDS011;7138;49.246;9.100;2023-07-28T00:26:34;4.00;;;2.58;;
14118;SDS011;7138;49.246;9.100;2023-07-28T00:29:00;4.10;;;2.35;;
14118;SDS011;7138;49.246;9.100;2023-07-28T00:31:26;5.20;;;2.90;;
14118;SDS011;7138;49.246;9.100;2023-07-28T00:33:52;4.97;;;2.95;;
14118;SDS011;7138;49.246;9.100;2023-07-28T00:36:18;5.45;;;3.05;;
14118;SDS011;7138;49.246;9.100;2023-07-28T00:38:43;5.65;;;3.13;;
14118;SDS011;7138;49.246;9.100;2023-07-28T00:41:09;4.70;;;3.08;;
14118;SDS011;7138;49.246;9.100;2023-07-28T00:43:36;5.78;;;2.65;;
14118;SDS011;7138;49.246;9.100;2023-07-28T00:46:02;6.03;;;2.83;;
14118;SDS011;7138;49.246;9.100;2023-07-28T00:48:28;5.28;;;2.72;;
14118;SDS011;7138;49.246;9.100;2023-07-28T00:50:54;5.88;;;3.42;;
14118;SDS011;7138;49.246;9.100;2023-07-28T00:53:20;9.05;;;3.20;;
14118;SDS011;7138;49.246;9.100;2023-07-28T00:55:48;4.47;;;2.58;;
14118;SDS011;7138;49.246;9.100;2023-07-28T00:58:14;6.30;;;2.90;;
14118;SDS011;7138;49.246;9.100;2023-07-28T01:00:41;4.47;;;2.90;;
14118;SDS011;7138;49.246;9.100;2023-07-28T01:03:07;6.50;;;3.13;;
14118;SDS011;7138;49.246;9.100;2023-07-28T01:05:34;5.38;;;3.13;;
14118;SDS011;7138;49.246;9.100;2023-07-28T01:08:22;4.30;;;2.70;;
14118;SDS011;7138;49.246;9.100;2023-07-28T01:10:55;5.05;;;3.13;;
14118;SDS011;7138;49.246;9.100;2023-07-28T01:13:21;6.35;;;3.00;;
14118;SDS011;7138;49.246;9.100;2023-07-28T01:15:49;6.88;;;3.22;;
14118;SDS011;7138;49.246;9.100;2023-07-28T01:18:14;4.47;;;2.60;;
14118;SDS011;7138;49.246;9.100;2023-07-28T01:20:40;5.07;;;3.15;;
14118;SDS011;7138;49.246;9.100;2023-07-28T01:23:09;6.55;;;3.38;;
14118;SDS011;7138;49.246;9.100;2023-07-28T01:25:47;7.45;;;3.20;;
14118;SDS011;7138;49.246;9.100;2023-07-28T01:28:22;4.28;;;2.85;;
14118;SDS011;7138;49.246;9.100;2023-07-28T01:30:49;7.40;;;2.95;;
14118;SDS011;7138;49.246;9.100;2023-07-28T01:33:15;4.78;;;2.97;;
14118;SDS011;7138;49.246;9.100;2023-07-28T01:35:41;5.15;;;2.97;;
14118;SDS011;7138;49.246;9.100;2023-07-28T01:38:06;5.53;;;3.03;;
14118;SDS011;7138;49.246;9.100;2023-07-28T01:40:32;5.97;;;3.13;;
14118;SDS011;7138;49.246;9.100;2023-07-28T01:42:58;6.50;;;3.30;;
14118;SDS011;7138;49.246;9.100;2023-07-28T01:45:25;9.00;;;3.88;;
14118;SDS011;7138;49.246;9.100;2023-07-28T01:47:51;6.13;;;3.25;;
14118;SDS011;7138;49.246;9.100;2023-07-28T01:50:17;9.50;;;3.45;;
14118;SDS011;7138;49.246;9.100;2023-07-28T01:52:43;5.85;;;3.60;;
14118;SDS011;7138;49.246;9.100;2023-07-28T01:55:09;4.82;;;3.25;;
14118;SDS011;7138;49.246;9.100;2023-07-28T01:57:35;5.85;;;3.00;;
14118;SDS011;7138;49.246;9.100;2023-07-28T02:00:05;4.93;;;3.10;;
14118;SDS011;7138;49.246;9.100;2023-07-28T02:02:33;4.80;;;3.10;;
14118;SDS011;7138;49.246;9.100;2023-07-28T02:04:59;5.30;;;3.25;;
14118;SDS011;7138;49.246;9.100;2023-07-28T02:07:25;4.78;;;3.05;;
14118;SDS011;7138;49.246;9.100;2023-07-28T02:09:51;4.93;;;3.33;;
14118;SDS011;7138;49.246;9.100;2023-07-28T02:12:17;7.35;;;3.58;;
14118;SDS011;7138;49.246;9.100;2023-07-28T02:14:42;7.75;;;3.45;;
14118;SDS011;7138;49.246;9.100;2023-07-28T02:17:08;5.70;;;3.30;;
14118;SDS011;7138;49.246;9.100;2023-07-28T02:19:35;6.13;;;3.90;;
14118;SDS011;7138;49.246;9.100;2023-07-28T02:22:01;6.70;;;3.65;;
14118;SDS011;7138;49.246;9.100;2023-07-28T02:24:27;6.53;;;3.60;;
14118;SDS011;7138;49.246;9.100;2023-07-28T02:26:53;5.47;;;3.67;;
14118;SDS011;7138;49.246;9.100;2023-07-28T02:29:19;5.88;;;3.65;;
14118;SDS011;7138;49.246;9.100;2023-07-28T02:31:45;7.50;;;3.97;;
14118;SDS011;7138;49.246;9.100;2023-07-28T02:34:11;7.40;;;4.00;;
14118;SDS011;7138;49.246;9.100;2023-07-28T02:36:38;5.82;;;3.25;;
14118;SDS011;7138;49.246;9.100;2023-07-28T02:39:04;5.85;;;3.45;;
14118;SDS011;7138;49.246;9.100;2023-07-28T02:41:30;5.93;;;3.60;;
14118;SDS011;7138;49.246;9.100;2023-07-28T02:43:55;7.55;;;3.85;;
14118;SDS011;7138;49.246;9.100;2023-07-28T02:46:21;6.57;;;3.92;;
14118;SDS011;7138;49.246;9.100;2023-07-28T02:48:47;5.75;;;3.83;;
14118;SDS011;7138;49.246;9.100;2023-07-28T02:51:13;6.45;;;3.63;;
14118;SDS011;7138;49.246;9.100;2023-07-28T02:53:40;5.03;;;3.55;;
14118;SDS011;7138;49.246;9.100;2023-07-28T02:56:06;7.35;;;3.80;;
14118;SDS011;7138;49.246;9.100;2023-07-28T02:58:32;5.95;;;3.85;;
14118;SDS011;7138;49.246;9.100;2023-07-28T03:00:57;7.15;;;4.00;;
14118;SDS011;7138;49.246;9.100;2023-07-28T03:03:24;7.43;;;4.43;;
14118;SDS011;7138;49.246;9.100;2023-07-28T03:05:51;5.72;;;4.00;;
14118;SDS011;7138;49.246;9.100;2023-07-28T03:08:18;6.65;;;4.05;;
14118;SDS011;7138;49.246;9.100;2023-07-28T03:10:46;6.65;;;3.75;;
14118;SDS011;7138;49.246;9.100;2023-07-28T03:13:12;8.20;;;3.70;;
14118;SDS011;7138;49.246;9.100;2023-07-28T03:15:38;6.55;;;3.53;;
14118;SDS011;7138;49.246;9.100;2023-07-28T03:18:04;11.75;;;4.60;;
14118;SDS011;7138;49.246;9.100;2023-07-28T03:20:30;6.82;;;3.67;;
14118;SDS011;7138;49.246;9.100;2023-07-28T03:22:56;6.53;;;3.80;;
14118;SDS011;7138;49.246;9.100;2023-07-28T03:25:21;6.20;;;3.67;;
14118;SDS011;7138;49.246;9.100;2023-07-28T03:27:49;8.27;;;3.78;;
14118;SDS011;7138;49.246;9.100;2023-07-28T03:30:14;7.40;;;3.50;;
14118;SDS011;7138;49.246;9.100;2023-07-28T03:32:40;7.40;;;3.30;;
14118;SDS011;7138;49.246;9.100;2023-07-28T03:35:07;10.68;;;4.28;;
14118;SDS011;7138;49.246;9.100;2023-07-28T03:37:34;5.63;;;3.42;;
14118;SDS011;7138;49.246;9.100;2023-07-28T03:39:59;6.18;;;3.80;;
14118;SDS011;7138;49.246;9.100;2023-07-28T03:42:25;7.43;;;3.63;;
14118;SDS011;7138;49.246;9.100;2023-07-28T03:44:53;7.68;;;3.60;;
14118;SDS011;7138;49.246;9.100;2023-07-28T03:47:19;8.20;;;3.60;;
14118;SDS011;7138;49.246;9.100;2023-07-28T03:49:45;6.82;;;3.45;;
14118;SDS011;7138;49.246;9.100;2023-07-28T03:52:11;5.18;;;3.78;;
14118;SDS011;7138;49.246;9.100;2023-07-28T03:54:36;5.57;;;3.47;;
14118;SDS011;7138;49.246;9.100;2023-07-28T03:57:03;6.43;;;3.38;;
14118;SDS011;7138;49.246;9.100;2023-07-28T03:59:29;5.88;;;3.80;;
14118;SDS011;7138;49.246;9.100;2023-07-28T04:01:56;8.30;;;3.65;;
14118;SDS011;7138;49.246;9.100;2023-07-28T04:04:23;7.28;;;3.83;;
14118;SDS011;7138;49.246;9.100;2023-07-28T04:06:49;6.63;;;3.53;;
14118;SDS011;7138;49.246;9.100;2023-07-28T04:09:15;5.32;;;3.42;;
14118;SDS011;7138;49.246;9.100;2023-07-28T04:11:42;7.47;;;3.55;;
14118;SDS011;7138;49.246;9.100;2023-07-28T04:14:08;10.27;;;4.00;;
14118;SDS011;7138;49.246;9.100;2023-07-28T04:16:34;6.88;;;4.03;;
14118;SDS011;7138;49.246;9.100;2023-07-28T04:19:01;7.43;;;4.15;;
14118;SDS011;7138;49.246;9.100;2023-07-28T04:21:27;8.27;;;3.65;;
14118;SDS011;7138;49.246;9.100;2023-07-28T04:23:53;7.63;;;3.72;;
14118;SDS011;7138;49.246;9.100;2023-07-28T04:26:19;6.68;;;3.50;;
14118;SDS011;7138;49.246;9.100;2023-07-28T04:28:45;7.03;;;3.65;;
14118;SDS011;7138;49.246;9.100;2023-07-28T04:31:11;8.88;;;3.92;;
14118;SDS011;7138;49.246;9.100;2023-07-28T04:33:37;6.90;;;3.95;;
14118;SDS011;7138;49.246;9.100;2023-07-28T04:36:07;6.47;;;4.13;;
14118;SDS011;7138;49.246;9.100;2023-07-28T04:38:33;7.10;;;3.90;;
14118;SDS011;7138;49.246;9.100;2023-07-28T04:40:59;6.97;;;3.85;;
14118;SDS011;7138;49.246;9.100;2023-07-28T04:43:25;8.50;;;3.55;;
14118;SDS011;7138;49.246;9.100;2023-07-28T04:45:51;7.55;;;3.88;;
14118;SDS011;7138;49.246;9.100;2023-07-28T04:48:17;6.80;;;4.30;;
14118;SDS011;7138;49.246;9.100;2023-07-28T04:50:43;6.97;;;4.03;;
14118;SDS011;7138;49.246;9.100;2023-07-28T04:53:11;7.22;;;3.72;;
14118;SDS011;7138;49.246;9.100;2023-07-28T04:55:37;6.60;;;3.70;;
14118;SDS011;7138;49.246;9.100;2023-07-28T04:58:02;6.38;;;4.00;;
14118;SDS011;7138;49.246;9.100;2023-07-28T05:00:28;8.50;;;4.13;;
14118;SDS011;7138;49.246;9.100;2023-07-28T05:02:54;5.63;;;3.83;;
14118;SDS011;7138;49.246;9.100;2023-07-28T05:05:20;7.07;;;4.00;;
14118;SDS011;7138;49.246;9.100;2023-07-28T05:07:46;6.80;;;3.75;;
14118;SDS011;7138;49.246;9.100;2023-07-28T05:10:13;6.43;;;3.63;;
14118;SDS011;7138;49.246;9.100;2023-07-28T05:12:39;4.55;;;2.97;;
14118;SDS011;7138;49.246;9.100;2023-07-28T05:15:06;7.05;;;3.45;;
14118;SDS011;7138;49.246;9.100;2023-07-28T05:17:35;10.82;;;3.60;;
14118;SDS011;7138;49.246;9.100;2023-07-28T05:20:01;6.32;;;3.30;;
14118;SDS011;7138;49.246;9.100;2023-07-28T05:22:27;6.03;;;3.20;;
14118;SDS011;7138;49.246;9.100;2023-07-28T05:24:53;8.13;;;3.30;;
14118;SDS011;7138;49.246;9.100;2023-07-28T05:27:20;7.10;;;3.53;;
14118;SDS011;7138;49.246;9.100;2023-07-28T05:29:46;5.40;;;2.95;;
14118;SDS011;7138;49.246;9.100;2023-07-28T05:32:11;6.20;;;3.13;;
14118;SDS011;7138;49.246;9.100;2023-07-28T05:34:37;5.18;;;2.88;;
14118;SDS011;7138;49.246;9.100;2023-07-28T05:37:06;5.57;;;3.13;;
14118;SDS011;7138;49.246;9.100;2023-07-28T05:39:32;5.60;;;3.20;;
14118;SDS011;7138;49.246;9.100;2023-07-28T05:41:58;5.55;;;3.30;;
14118;SDS011;7138;49.246;9.100;2023-07-28T05:44:25;6.07;;;3.15;;
14118;SDS011;7138;49.246;9.100;2023-07-28T05:46:51;8.35;;;3.33;;
14118;SDS011;7138;49.246;9.100;2023-07-28T05:49:17;6.60;;;3.30;;
14118;SDS011;7138;49.246;9.100;2023-07-28T05:51:43;4.88;;;2.83;;
14118;SDS011;7138;49.246;9.100;2023-07-28T05:54:08;5.82;;;2.78;;
14118;SDS011;7138;49.246;9.100;2023-07-28T05:56:34;5.55;;;3.10;;
14118;SDS011;7138;49.246;9.100;2023-07-28T05:59:00;5.50;;;3.00;;
14118;SDS011;7138;49.246;9.100;2023-07-28T06:01:27;6.30;;;3.22;;
14118;SDS011;7138;49.246;9.100;2023-07-28T06:03:53;7.18;;;3.47;;
14118;SDS011;7138;49.246;9.100;2023-07-28T06:06:23;8.70;;;3.30;;
14118;SDS011;7138;49.246;9.100;2023-07-28T06:08:49;5.88;;;3.38;;
14118;SDS011;7138;49.246;9.100;2023-07-28T06:11:15;6.45;;;3.40;;
14118;SDS011;7138;49.246;9.100;2023-07-28T06:13:42;5.55;;;3.42;;
14118;SDS011;7138;49.246;9.100;2023-07-28T06:16:09;6.30;;;3.83;;
14118;SDS011;7138;49.246;9.100;2023-07-28T06:18:36;6.13;;;3.30;;
14118;SDS011;7138;49.246;9.100;2023-07-28T06:21:02;5.80;;;3.38;;
14118;SDS011;7138;49.246;9.100;2023-07-28T06:23:28;5.47;;;3.30;;
14118;SDS011;7138;49.246;9.100;2023-07-28T06:25:54;8.45;;;3.95;;
14118;SDS011;7138;49.246;9.100;2023-07-28T06:28:20;5.10;;;3.22;;
14118;SDS011;7138;49.246;9.100;2023-07-28T06:30:46;5.60;;;3.40;;
14118;SDS011;7138;49.246;9.100;2023-07-28T06:33:12;5.15;;;3.40;;
14118;SDS011;7138;49.246;9.100;2023-07-28T06:35:39;5.90;;;3.60;;
14118;SDS011;7138;49.246;9.100;2023-07-28T06:38:05;5.07;;;3.30;;
14118;SDS011;7138;49.246;9.100;2023-07-28T06:40:31;6.05;;;3.63;;
14118;SDS011;7138;49.246;9.100;2023-07-28T06:42:57;5.90;;;3.30;;
14118;SDS011;7138;49.246;9.100;2023-07-28T06:45:23;4.88;;;3.05;;
14118;SDS011;7138;49.246;9.100;2023-07-28T06:47:48;4.88;;;2.53;;
14118;SDS011;7138;49.246;9.100;2023-07-28T06:50:14;4.75;;;2.78;;
14118;SDS011;7138;49.246;9.100;2023-07-28T06:52:42;4.55;;;2.67;;
14118;SDS011;7138;49.246;9.100;2023-07-28T06:55:08;4.38;;;2.40;;
14118;SDS011;7138;49.246;9.100;2023-07-28T06:57:34;5.10;;;2.40;;
14118;SDS011;7138;49.246;9.100;2023-07-28T07:00:00;4.88;;;2.42;;
14118;SDS011;7138;49.246;9.100;2023-07-28T07:02:26;6.97;;;2.13;;
14118;SDS011;7138;49.246;9.100;2023-07-28T07:04:51;4.25;;;2.08;;
14118;SDS011;7138;49.246;9.100;2023-07-28T07:07:17;12.90;;;4.35;;
14118;SDS011;7138;49.246;9.100;2023-07-28T07:09:44;4.05;;;2.08;;
14118;SDS011;7138;49.246;9.100;2023-07-28T07:12:10;6.25;;;2.78;;
14118;SDS011;7138;49.246;9.100;2023-07-28T07:14:36;4.43;;;2.15;;
14118;SDS011;7138;49.246;9.100;2023-07-28T07:17:02;4.43;;;2.30;;
14118;SDS011;7138;49.246;9.100;2023-07-28T07:19:28;4.55;;;2.13;;
14118;SDS011;7138;49.246;9.100;2023-07-28T07:21:54;3.97;;;2.10;;
14118;SDS011;7138;49.246;9.100;2023-07-28T07:24:20;3.70;;;2.03;;
14118;SDS011;7138;49.246;9.100;2023-07-28T07:26:48;3.30;;;1.70;;
14118;SDS011;7138;49.246;9.100;2023-07-28T07:29:13;3.53;;;1.80;;
14118;SDS011;7138;49.246;9.100;2023-07-28T07:31:39;4.13;;;2.03;;
14118;SDS011;7138;49.246;9.100;2023-07-28T07:34:05;3.38;;;1.90;;
14118;SDS011;7138;49.246;9.100;2023-07-28T07:36:31;3.40;;;1.98;;
14118;SDS011;7138;49.246;9.100;2023-07-28T07:38:57;4.90;;;2.35;;
14118;SDS011;7138;49.246;9.100;2023-07-28T07:41:23;3.72;;;2.22;;
14118;SDS011;7138;49.246;9.100;2023-07-28T07:43:52;4.97;;;2.10;;
14118;SDS011;7138;49.246;9.100;2023-07-28T07:48:45;3.05;;;1.77;;
14118;SDS011;7138;49.246;9.100;2023-07-28T07:51:11;3.75;;;2.17;;
14118;SDS011;7138;49.246;9.100;2023-07-28T07:53:37;3.78;;;2.13;;
14118;SDS011;7138;49.246;9.100;2023-07-28T07:56:04;3.83;;;2.20;;
14118;SDS011;7138;49.246;9.100;2023-07-28T07:58:31;3.28;;;2.00;;
14118;SDS011;7138;49.246;9.100;2023-07-28T08:00:59;3.72;;;2.20;;
14118;SDS011;7138;49.246;9.100;2023-07-28T08:03:25;4.10;;;2.22;;
14118;SDS011;7138;49.246;9.100;2023-07-28T08:05:52;3.25;;;1.80;;
14118;SDS011;7138;49.246;9.100;2023-07-28T08:08:18;4.63;;;2.03;;
14118;SDS011;7138;49.246;9.100;2023-07-28T08:10:44;3.22;;;1.88;;
14118;SDS011;7138;49.246;9.100;2023-07-28T08:13:10;2.90;;;1.77;;
14118;SDS011;7138;49.246;9.100;2023-07-28T08:15:36;3.72;;;1.83;;
14118;SDS011;7138;49.246;9.100;2023-07-28T08:18:04;3.30;;;1.70;;
14118;SDS011;7138;49.246;9.100;2023-07-28T08:20:29;2.83;;;1.60;;
14118;SDS011;7138;49.246;9.100;2023-07-28T08:22:55;2.47;;;1.30;;
14118;SDS011;7138;49.246;9.100;2023-07-28T08:25:21;2.97;;;1.50;;
14118;SDS011;7138;49.246;9.100;2023-07-28T08:27:48;3.00;;;1.42;;
14118;SDS011;7138;49.246;9.100;2023-07-28T08:30:14;2.70;;;1.38;;
14118;SDS011;7138;49.246;9.100;2023-07-28T08:32:40;3.80;;;1.50;;
14118;SDS011;7138;49.246;9.100;2023-07-28T08:35:08;3.22;;;1.55;;
14118;SDS011;7138;49.246;9.100;2023-07-28T08:37:34;4.45;;;1.48;;
14118;SDS011;7138;49.246;9.100;2023-07-28T08:40:00;2.83;;;1.30;;
14118;SDS011;7138;49.246;9.100;2023-07-28T08:42:28;2.90;;;1.25;;
14118;SDS011;7138;49.246;9.100;2023-07-28T08:44:55;3.50;;;1.70;;
14118;SDS011;7138;49.246;9.100;2023-07-28T08:47:22;2.65;;;1.45;;
14118;SDS011;7138;49.246;9.100;2023-07-28T08:49:47;2.78;;;1.30;;
14118;SDS011;7138;49.246;9.100;2023-07-28T08:52:16;2.47;;;1.30;;
14118;SDS011;7138;49.246;9.100;2023-07-28T08:54:43;4.13;;;1.40;;
14118;SDS011;7138;49.246;9.100;2023-07-28T08:57:08;2.55;;;1.40;;
14118;SDS011;7138;49.246;9.100;2023-07-28T08:59:35;3.05;;;1.40;;
14118;SDS011;7138;49.246;9.100;2023-07-28T09:02:08;4.13;;;1.45;;
14118;SDS011;7138;49.246;9.100;2023-07-28T09:04:35;2.55;;;1.48;;
14118;SDS011;7138;49.246;9.100;2023-07-28T09:07:02;2.65;;;1.40;;
14118;SDS011;7138;49.246;9.100;2023-07-28T09:09:32;4.15;;;1.92;;
14118;SDS011;7138;49.246;9.100;2023-07-28T09:11:59;3.67;;;1.80;;
14118;SDS011;7138;49.246;9.100;2023-07-28T09:14:26;3.67;;;1.95;;
14118;SDS011;7138;49.246;9.100;2023-07-28T09:16:52;3.58;;;1.80;;
14118;SDS011;7138;49.246;9.100;2023-07-28T09:19:19;3.30;;;1.95;;
14118;SDS011;7138;49.246;9.100;2023-07-28T09:21:51;3.35;;;1.95;;
14118;SDS011;7138;49.246;9.100;2023-07-28T09:24:28;3.13;;;2.00;;
14118;SDS011;7138;49.246;9.100;2023-07-28T09:26:58;4.32;;;1.83;;
14118;SDS011;7138;49.246;9.100;2023-07-28T09:29:26;3.58;;;2.13;;
14118;SDS011;7138;49.246;9.100;2023-07-28T09:32:02;3.20;;;1.88;;
14118;SDS011;7138;49.246;9.100;2023-07-28T09:34:29;4.82;;;2.05;;
14118;SDS011;7138;49.246;9.100;2023-07-28T09:36:56;3.30;;;2.03;;
14118;SDS011;7138;49.246;9.100;2023-07-28T09:39:24;4.82;;;1.90;;
14118;SDS011;7138;49.246;9.100;2023-07-28T09:41:53;3.95;;;1.73;;
14118;SDS011;7138;49.246;9.100;2023-07-28T09:44:23;3.38;;;1.80;;
14118;SDS011;7138;49.246;9.100;2023-07-28T09:46:49;3.30;;;1.80;;
14118;SDS011;7138;49.246;9.100;2023-07-28T09:49:20;3.60;;;2.30;;
14118;SDS011;7138;49.246;9.100;2023-07-28T09:51:53;5.65;;;2.13;;
14118;SDS011;7138;49.246;9.100;2023-07-28T09:54:24;4.43;;;2.28;;
14118;SDS011;7138;49.246;9.100;2023-07-28T09:56:56;3.70;;;1.88;;
14118;SDS011;7138;49.246;9.100;2023-07-28T09:59:24;4.00;;;1.98;;
14118;SDS011;7138;49.246;9.100;2023-07-28T10:01:56;3.65;;;1.83;;
14118;SDS011;7138;49.246;9.100;2023-07-28T10:04:24;2.70;;;1.50;;
14118;SDS011;7138;49.246;9.100;2023-07-28T10:06:50;2.80;;;1.40;;
14118;SDS011;7138;49.246;9.100;2023-07-28T10:09:21;3.97;;;1.65;;
14118;SDS011;7138;49.246;9.100;2023-07-28T10:11:49;4.90;;;1.88;;
14118;SDS011;7138;49.246;9.100;2023-07-28T10:14:26;4.70;;;1.95;;
14118;SDS011;7138;49.246;9.100;2023-07-28T10:16:53;4.95;;;1.80;;
14118;SDS011;7138;49.246;9.100;2023-07-28T10:19:21;3.50;;;1.95;;
14118;SDS011;7138;49.246;9.100;2023-07-28T10:21:47;3.65;;;1.67;;
14118;SDS011;7138;49.246;9.100;2023-07-28T10:24:12;3.50;;;1.65;;
14118;SDS011;7138;49.246;9.100;2023-07-28T10:26:40;3.33;;;1.80;;
14118;SDS011;7138;49.246;9.100;2023-07-28T10:29:10;3.58;;;1.88;;
14118;SDS011;7138;49.246;9.100;2023-07-28T10:31:50;4.40;;;1.40;;
14118;SDS011;7138;49.246;9.100;2023-07-28T10:34:18;4.75;;;1.60;;
14118;SDS011;7138;49.246;9.100;2023-07-28T10:36:44;3.58;;;1.63;;
14118;SDS011;7138;49.246;9.100;2023-07-28T10:39:14;3.15;;;1.60;;
14118;SDS011;7138;49.246;9.100;2023-07-28T10:41:59;2.80;;;1.52;;
14118;SDS011;7138;49.246;9.100;2023-07-28T10:44:28;3.38;;;1.33;;
14118;SDS011;7138;49.246;9.100;2023-07-28T10:46:56;3.25;;;1.40;;
14118;SDS011;7138;49.246;9.100;2023-07-28T10:49:23;3.05;;;1.60;;
14118;SDS011;7138;49.246;9.100;2023-07-28T10:51:49;3.67;;;1.55;;
14118;SDS011;7138;49.246;9.100;2023-07-28T10:54:15;3.67;;;1.70;;
14118;SDS011;7138;49.246;9.100;2023-07-28T10:56:44;2.60;;;1.40;;
14118;SDS011;7138;49.246;9.100;2023-07-28T10:59:10;3.03;;;1.65;;
14118;SDS011;7138;49.246;9.100;2023-07-28T11:01:38;4.95;;;1.52;;
14118;SDS011;7138;49.246;9.100;2023-07-28T11:04:08;3.83;;;1.52;;
14118;SDS011;7138;49.246;9.100;2023-07-28T11:06:36;3.05;;;1.40;;
14118;SDS011;7138;49.246;9.100;2023-07-28T11:09:05;4.30;;;1.35;;
14118;SDS011;7138;49.246;9.100;2023-07-28T11:11:31;3.10;;;1.40;;
14118;SDS011;7138;49.246;9.100;2023-07-28T11:13:59;2.70;;;1.25;;
14118;SDS011;7138;49.246;9.100;2023-07-28T11:16:25;3.70;;;1.58;;
14118;SDS011;7138;49.246;9.100;2023-07-28T11:18:54;2.72;;;1.20;;
14118;SDS011;7138;49.246;9.100;2023-07-28T11:21:22;5.13;;;1.20;;
14118;SDS011;7138;49.246;9.100;2023-07-28T11:23:48;2.63;;;1.20;;
14118;SDS011;7138;49.246;9.100;2023-07-28T11:26:16;2.45;;;1.23;;
14118;SDS011;7138;49.246;9.100;2023-07-28T11:28:44;2.60;;;1.20;;
14118;SDS011;7138;49.246;9.100;2023-07-28T11:31:11;2.40;;;1.00;;
14118;SDS011;7138;49.246;9.100;2023-07-28T11:33:37;3.10;;;1.15;;
14118;SDS011;7138;49.246;9.100;2023-07-28T11:36:04;3.05;;;1.10;;
14118;SDS011;7138;49.246;9.100;2023-07-28T11:38:32;2.53;;;1.17;;
14118;SDS011;7138;49.246;9.100;2023-07-28T11:41:00;2.85;;;1.20;;
14118;SDS011;7138;49.246;9.100;2023-07-28T11:43:27;2.58;;;1.33;;
14118;SDS011;7138;49.246;9.100;2023-07-28T11:45:54;6.28;;;1.70;;
14118;SDS011;7138;49.246;9.100;2023-07-28T11:48:20;2.60;;;1.33;;
14118;SDS011;7138;49.246;9.100;2023-07-28T11:50:45;4.15;;;1.55;;
14118;SDS011;7138;49.246;9.100;2023-07-28T11:53:12;3.00;;;1.23;;
14118;SDS011;7138;49.246;9.100;2023-07-28T11:55:40;2.55;;;1.20;;
14118;SDS011;7138;49.246;9.100;2023-07-28T11:58:06;2.50;;;1.30;;
14118;SDS011;7138;49.246;9.100;2023-07-28T12:00:34;4.50;;;1.15;;
14118;SDS011;7138;49.246;9.100;2023-07-28T12:03:02;4.05;;;0.80;;
14118;SDS011;7138;49.246;9.100;2023-07-28T12:05:30;1.83;;;0.80;;
14118;SDS011;7138;49.246;9.100;2023-07-28T12:07:58;3.53;;;1.15;;
14118;SDS011;7138;49.246;9.100;2023-07-28T12:10:24;4.63;;;0.98;;
14118;SDS011;7138;49.246;9.100;2023-07-28T12:12:51;3.30;;;1.33;;
14118;SDS011;7138;49.246;9.100;2023-07-28T12:15:18;2.80;;;1.35;;
14118;SDS011;7138;49.246;9.100;2023-07-28T12:17:59;2.75;;;1.20;;
14118;SDS011;7138;49.246;9.100;2023-07-28T12:20:33;3.22;;;1.30;;
14118;SDS011;7138;49.246;9.100;2023-07-28T12:23:00;6.50;;;1.40;;
14118;SDS011;7138;49.246;9.100;2023-07-28T12:25:26;2.85;;;1.40;;
14118;SDS011;7138;49.246;9.100;2023-07-28T12:27:54;3.97;;;1.48;;
14118;SDS011;7138;49.246;9.100;2023-07-28T12:30:20;2.80;;;1.40;;
14118;SDS011;7138;49.246;9.100;2023-07-28T12:32:46;3.55;;;1.52;;
14118;SDS011;7138;49.246;9.100;2023-07-28T12:35:13;4.20;;;1.55;;
14118;SDS011;7138;49.246;9.100;2023-07-28T12:37:39;3.35;;;1.48;;
14118;SDS011;7138;49.246;9.100;2023-07-28T12:40:05;3.20;;;1.67;;
14118;SDS011;7138;49.246;9.100;2023-07-28T12:42:33;3.03;;;1.52;;
14118;SDS011;7138;49.246;9.100;2023-07-28T12:45:00;2.97;;;1.40;;
14118;SDS011;7138;49.246;9.100;2023-07-28T12:47:26;4.00;;;1.60;;
14118;SDS011;7138;49.246;9.100;2023-07-28T12:49:52;3.97;;;2.00;;
14118;SDS011;7138;49.246;9.100;2023-07-28T12:52:18;4.55;;;1.83;;
14118;SDS011;7138;49.246;9.100;2023-07-28T12:54:45;4.70;;;1.90;;
14118;SDS011;7138;49.246;9.100;2023-07-28T12:57:12;13.27;;;3.95;;
14118;SDS011;7138;49.246;9.100;2023-07-28T12:59:38;4.30;;;2.33;;
14118;SDS011;7138;49.246;9.100;2023-07-28T13:02:06;4.05;;;1.48;;
14118;SDS011;7138;49.246;9.100;2023-07-28T13:04:31;2.92;;;1.58;;
14118;SDS011;7138;49.246;9.100;2023-07-28T13:06:57;2.88;;;1.52;;
14118;SDS011;7138;49.246;9.100;2023-07-28T13:09:23;3.50;;;1.90;;
14118;SDS011;7138;49.246;9.100;2023-07-28T13:11:49;3.65;;;1.80;;
14118;SDS011;7138;49.246;9.100;2023-07-28T13:14:15;2.83;;;1.52;;
14118;SDS011;7138;49.246;9.100;2023-07-28T13:16:41;3.60;;;1.60;;
14118;SDS011;7138;49.246;9.100;2023-07-28T13:19:08;3.65;;;1.85;;
14118;SDS011;7138;49.246;9.100;2023-07-28T13:21:34;3.72;;;2.13;;
14118;SDS011;7138;49.246;9.100;2023-07-28T13:23:59;4.65;;;1.88;;
14118;SDS011;7138;49.246;9.100;2023-07-28T13:26:25;4.53;;;1.95;;
14118;SDS011;7138;49.246;9.100;2023-07-28T13:28:51;3.45;;;1.90;;
14118;SDS011;7138;49.246;9.100;2023-07-28T13:31:17;4.22;;;2.05;;
14118;SDS011;7138;49.246;9.100;2023-07-28T13:33:44;4.97;;;2.10;;
14118;SDS011;7138;49.246;9.100;2023-07-28T13:36:11;4.68;;;2.03;;
14118;SDS011;7138;49.246;9.100;2023-07-28T13:38:37;3.45;;;2.17;;
14118;SDS011;7138;49.246;9.100;2023-07-28T13:41:04;4.05;;;2.10;;
14118;SDS011;7138;49.246;9.100;2023-07-28T13:43:31;6.05;;;2.28;;
14118;SDS011;7138;49.246;9.100;2023-07-28T13:45:57;3.42;;;1.88;;
14118;SDS011;7138;49.246;9.100;2023-07-28T13:48:23;4.60;;;2.08;;
14118;SDS011;7138;49.246;9.100;2023-07-28T13:50:49;3.35;;;1.70;;
14118;SDS011;7138;49.246;9.100;2023-07-28T13:53:16;4.38;;;2.10;;
14118;SDS011;7138;49.246;9.100;2023-07-28T13:55:42;4.82;;;2.00;;
14118;SDS011;7138;49.246;9.100;2023-07-28T13:58:08;4.65;;;1.90;;
14118;SDS011;7138;49.246;9.100;2023-07-28T14:00:35;9.63;;;2.25;;
14118;SDS011;7138;49.246;9.100;2023-07-28T14:03:00;5.18;;;1.92;;
14118;SDS011;7138;49.246;9.100;2023-07-28T14:05:27;4.38;;;2.08;;
14118;SDS011;7138;49.246;9.100;2023-07-28T14:07:52;4.05;;;2.28;;
14118;SDS011;7138;49.246;9.100;2023-07-28T14:10:20;5.68;;;2.28;;
14118;SDS011;7138;49.246;9.100;2023-07-28T14:12:46;4.88;;;2.40;;
14118;SDS011;7138;49.246;9.100;2023-07-28T14:15:12;4.53;;;2.15;;
14118;SDS011;7138;49.246;9.100;2023-07-28T14:17:37;4.97;;;2.28;;
14118;SDS011;7138;49.246;9.100;2023-07-28T14:20:03;4.68;;;2.50;;
14118;SDS011;7138;49.246;9.100;2023-07-28T14:22:31;4.05;;;2.13;;
14118;SDS011;7138;49.246;9.100;2023-07-28T14:24:57;3.80;;;2.30;;
14118;SDS011;7138;49.246;9.100;2023-07-28T14:27:24;5.10;;;1.92;;
14118;SDS011;7138;49.246;9.100;2023-07-28T14:29:50;4.93;;;2.13;;
14118;SDS011;7138;49.246;9.100;2023-07-28T14:32:15;4.93;;;1.92;;
14118;SDS011;7138;49.246;9.100;2023-07-28T14:34:41;3.90;;;2.28;;
14118;SDS011;7138;49.246;9.100;2023-07-28T14:37:07;4.65;;;2.03;;
14118;SDS011;7138;49.246;9.100;2023-07-28T14:39:33;3.88;;;1.95;;
14118;SDS011;7138;49.246;9.100;2023-07-28T14:41:59;6.22;;;2.05;;
14118;SDS011;7138;49.246;9.100;2023-07-28T14:44:27;4.97;;;2.00;;
14118;SDS011;7138;49.246;9.100;2023-07-28T14:46:52;5.93;;;2.10;;
14118;SDS011;7138;49.246;9.100;2023-07-28T14:49:18;3.45;;;1.77;;
14118;SDS011;7138;49.246;9.100;2023-07-28T14:51:44;4.28;;;1.90;;
14118;SDS011;7138;49.246;9.100;2023-07-28T14:54:10;3.58;;;1.90;;
14118;SDS011;7138;49.246;9.100;2023-07-28T14:56:36;8.00;;;2.17;;
14118;SDS011;7138;49.246;9.100;2023-07-28T14:59:02;4.15;;;2.53;;
14118;SDS011;7138;49.246;9.100;2023-07-28T15:01:30;7.50;;;3.33;;